Time;durP1;ratioP1;P1;durP2;ratioP2;P2;SDS_P1;SDS_P2;PMS_P1;PMS_P2;Temp;Humidity;BMP_temperature;BMP_pressure;BME280_temperature;BME280_humidity;BME280_pressure;Samples;Min_cycle;Max_cycle;Signal;HPM_P1;HPM_P2
2021/04/27 00:00:10;;;;;;;11.63;6.47;;;;;;;2.69;63.37;100484.95;1827571;77;21255;-69
2021/04/27 00:02:38;;;;;;;10.15;6.03;;;;;;;2.70;63.27;100489.72;1828107;77;22052;-68
2021/04/27 00:05:08;;;;;;;15.38;7.97;;;;;;;2.70;63.12;100476.05;1824509;77;21270;-69
2021/04/27 00:07:37;;;;;;;15.50;7.58;;;;;;;2.70;62.91;100464.18;1829853;77;21137;-68
2021/04/27 00:10:06;;;;;;;12.68;7.45;;;;;;;2.73;62.66;100465.56;1831391;77;21782;-68
2021/04/27 00:12:34;;;;;;;13.22;8.33;;;;;;;2.75;62.68;100459.59;1827694;77;21225;-69
2021/04/27 00:15:06;;;;;;;9.63;6.62;;;;;;;2.77;62.72;100450.46;1841707;77;21248;-68
2021/04/27 00:17:34;;;;;;;;;;;;;;;2.82;62.69;100461.18;1829550;77;21264;-68
2021/04/27 00:20:07;;;;;;;9.58;5.95;;;;;;;2.84;62.70;100462.30;1832922;77;20291;-68
2021/04/27 00:22:34;;;;;;;11.68;6.05;;;;;;;2.83;62.64;100464.66;1829332;77;21172;-69
2021/04/27 00:25:04;;;;;;;11.60;6.65;;;;;;;2.81;62.65;100451.66;1830344;77;21104;-68
2021/04/27 00:27:32;;;;;;;12.90;6.15;;;;;;;2.86;62.87;100456.30;1809591;78;21119;-68
2021/04/27 00:29:59;;;;;;;13.75;7.45;;;;;;;2.90;63.00;100458.84;1794967;78;21359;-68
2021/04/27 00:32:27;;;;;;;10.20;6.12;;;;;;;2.93;63.09;100465.02;1834169;77;21208;-68
2021/04/27 00:34:55;;;;;;;13.03;7.85;;;;;;;2.96;63.03;100469.05;1800913;79;21446;-68
2021/04/27 00:37:22;;;;;;;18.00;10.80;;;;;;;2.97;63.01;100464.89;1839145;77;21512;-68
2021/04/27 00:39:50;;;;;;;20.55;11.95;;;;;;;3.00;63.17;100463.67;1799233;78;21101;-68
2021/04/27 00:42:33;;;;;;;18.02;10.55;;;;;;;3.00;63.29;100476.35;1829014;77;21134;-69
2021/04/27 00:45:01;;;;;;;13.60;8.13;;;;;;;3.03;63.41;100476.45;1829454;77;21928;-69
2021/04/27 00:47:29;;;;;;;10.72;6.05;;;;;;;3.05;63.47;100480.99;1833830;77;21493;-69
2021/04/27 00:49:58;;;;;;;11.08;6.60;;;;;;;3.04;63.33;100484.14;1830449;77;21224;-69
2021/04/27 00:52:26;;;;;;;10.68;5.80;;;;;;;3.07;63.29;100484.76;1826969;77;21375;-69
2021/04/27 00:54:54;;;;;;;10.03;6.08;;;;;;;3.08;63.38;100485.85;1796780;79;21605;-68
2021/04/27 00:57:23;;;;;;;9.15;5.70;;;;;;;3.06;63.23;100487.91;1726771;80;21230;-69
2021/04/27 00:59:52;;;;;;;10.65;5.83;;;;;;;3.03;63.00;100483.05;1771704;80;21271;-68
2021/04/27 01:02:20;;;;;;;10.23;5.58;;;;;;;2.99;62.87;100485.27;1793039;79;21660;-68
2021/04/27 01:04:48;;;;;;;9.43;5.67;;;;;;;2.98;62.73;100483.66;1827232;77;21564;-68
2021/04/27 01:07:16;;;;;;;9.30;5.28;;;;;;;2.97;62.93;100484.69;1820069;77;22472;-68
2021/04/27 01:09:49;;;;;;;9.65;5.90;;;;;;;2.97;63.25;100482.56;1790265;77;21141;-68
2021/04/27 01:12:36;;;;;;;9.93;5.87;;;;;;;2.95;63.13;100483.27;1832690;77;21120;-69
2021/04/27 01:15:17;;;;;;;11.68;6.37;;;;;;;2.94;63.09;100482.45;1826990;77;21137;-66
2021/04/27 01:17:45;;;;;;;11.80;6.15;;;;;;;2.93;63.10;100484.80;1823661;77;21295;-68
2021/04/27 01:20:38;;;;;;;11.53;6.20;;;;;;;2.93;63.12;100486.61;1798225;78;22701;-67
2021/04/27 01:23:12;;;;;;;11.88;6.62;;;;;;;2.90;63.14;100485.22;1799972;77;21053;-67
2021/04/27 01:26:22;;;;;;;9.95;6.40;;;;;;;2.90;63.45;100486.54;1821383;77;21263;-68
2021/04/27 01:28:52;;;;;;;8.90;5.78;;;;;;;2.89;63.58;100488.05;1781740;80;21269;-67
2021/04/27 01:31:28;;;;;;;12.33;6.72;;;;;;;2.93;63.63;100490.56;1774356;77;28582;-68
2021/04/27 01:33:57;;;;;;;11.97;6.47;;;;;;;2.89;63.71;100482.77;1766832;80;21175;-68
2021/04/27 01:36:25;;;;;;;12.43;7.22;;;;;;;2.89;63.76;100483.58;1769668;80;21196;-67
2021/04/27 01:38:54;;;;;;;10.18;6.42;;;;;;;2.86;64.02;100487.14;1767551;80;21261;-67
2021/04/27 01:41:23;;;;;;;11.20;6.42;;;;;;;2.82;64.16;100488.07;1771394;80;21208;-68
2021/04/27 01:43:52;;;;;;;11.10;6.12;;;;;;;2.77;64.38;100483.42;1776451;80;21450;-69
2021/04/27 01:46:20;;;;;;;10.43;6.33;;;;;;;2.76;64.63;100487.58;1763461;80;21269;-69
2021/04/27 01:48:49;;;;;;;12.40;6.10;;;;;;;2.73;64.77;100487.98;1769614;80;22220;-68
2021/04/27 01:51:19;;;;;;;10.28;5.90;;;;;;;2.72;65.01;100494.28;1775159;78;21270;-67
2021/04/27 01:54:05;;;;;;;11.40;6.47;;;;;;;2.70;65.31;100489.72;1790950;79;21573;-66
2021/04/27 01:56:34;;;;;;;9.88;5.87;;;;;;;2.68;65.62;100494.41;1797085;79;21125;-68
2021/04/27 01:59:04;;;;;;;11.08;6.05;;;;;;;2.67;65.89;100500.70;1761743;79;21167;-66
2021/04/27 02:01:34;;;;;;;8.60;5.83;;;;;;;2.65;66.19;100501.41;1791019;79;22087;-68
2021/04/27 02:04:04;;;;;;;11.95;6.83;;;;;;;2.62;66.42;100503.94;1792351;79;21225;-67
2021/04/27 02:06:42;;;;;;;8.58;5.08;;;;;;;2.59;66.71;100501.71;1780973;79;21571;-67
2021/04/27 02:09:11;;;;;;;10.00;5.53;;;;;;;2.57;66.95;100505.89;1792289;79;21557;-67
2021/04/27 02:11:44;;;;;;;9.88;6.12;;;;;;;2.52;67.12;100507.00;1795182;79;21169;-66
2021/04/27 02:14:13;;;;;;;13.60;6.95;;;;;;;2.47;67.25;100506.81;1790328;79;21197;-67
2021/04/27 02:17:05;;;;;;;10.10;5.85;;;;;;;2.45;67.39;100508.03;1799041;79;21138;-68
2021/04/27 02:19:33;;;;;;;;;;;;;;;2.44;67.66;100503.78;1791500;79;21141;-66
2021/04/27 02:22:06;;;;;;;8.85;4.90;;;;;;;2.41;67.79;100502.88;1724159;78;20571;-69
2021/04/27 02:24:44;;;;;;;8.17;5.10;;;;;;;2.41;68.11;100508.95;1818369;77;22739;-67
2021/04/27 02:27:13;;;;;;;9.38;5.47;;;;;;;2.30;68.31;100510.38;1782629;78;21105;-68
2021/04/27 02:29:42;;;;;;;10.05;5.00;;;;;;;2.27;68.54;100507.31;1796930;79;21191;-68
2021/04/27 02:32:13;;;;;;;9.10;4.92;;;;;;;2.25;68.66;100509.36;1789237;77;21211;-69
2021/04/27 02:34:43;;;;;;;9.38;5.17;;;;;;;2.21;68.75;100508.96;1774662;79;21131;-68
2021/04/27 02:37:12;;;;;;;9.55;5.87;;;;;;;2.14;68.81;100513.42;1782022;79;21199;-68
2021/04/27 02:39:42;;;;;;;10.82;5.70;;;;;;;2.09;68.87;100519.80;1813175;79;21183;-68
2021/04/27 02:42:11;;;;;;;8.28;5.05;;;;;;;2.02;69.02;100521.62;1795259;77;21255;-68
2021/04/27 02:44:54;;;;;;;9.15;5.28;;;;;;;1.96;69.13;100514.52;1796179;78;21642;-68
2021/04/27 02:47:32;;;;;;;8.77;5.57;;;;;;;1.93;69.37;100515.72;1831484;76;22528;-68
2021/04/27 02:50:01;;;;;;;10.07;5.57;;;;;;;1.83;69.55;100514.80;1715182;77;10000516;-69
2021/04/27 02:52:29;;;;;;;8.83;5.37;;;;;;;1.79;69.77;100512.77;1781534;77;21950;-69
2021/04/27 02:54:58;;;;;;;9.05;5.45;;;;;;;1.76;69.93;100511.85;1797490;77;21674;-68
2021/04/27 02:57:27;;;;;;;8.63;5.20;;;;;;;1.72;70.17;100509.32;1800977;77;21134;-69
2021/04/27 02:59:54;;;;;;;9.45;5.30;;;;;;;1.68;70.42;100508.91;1814033;78;21148;-69
2021/04/27 03:02:23;;;;;;;9.83;5.42;;;;;;;1.66;70.81;100515.37;1812446;77;22181;-69
2021/04/27 03:04:51;;;;;;;10.58;5.92;;;;;;;1.62;71.00;100509.70;1839202;76;21104;-68
2021/04/27 03:07:22;;;;;;;8.35;5.22;;;;;;;1.59;71.05;100506.95;1829148;76;21216;-68
2021/04/27 03:09:50;;;;;;;9.83;6.05;;;;;;;1.57;71.34;100505.02;1811948;78;21611;-68
2021/04/27 03:12:18;;;;;;;9.05;5.50;;;;;;;1.57;71.49;100512.92;1799347;77;21760;-68
2021/04/27 03:14:47;;;;;;;9.38;5.33;;;;;;;1.56;71.64;100516.56;1814255;77;21361;-69
2021/04/27 03:17:18;;;;;;;9.45;5.47;;;;;;;1.55;71.76;100521.53;1839438;75;21153;-67
2021/04/27 03:19:56;;;;;;;8.73;5.10;;;;;;;1.59;71.98;100518.80;1828866;77;23138;-68
2021/04/27 03:22:25;;;;;;;8.63;5.45;;;;;;;1.56;72.02;100517.08;1813242;77;21629;-69
2021/04/27 03:24:53;;;;;;;8.68;5.20;;;;;;;1.57;72.11;100514.23;1808638;77;22181;-69
2021/04/27 03:27:21;;;;;;;8.33;5.40;;;;;;;1.62;72.24;100513.66;1838148;77;21593;-68
2021/04/27 03:29:56;;;;;;;10.50;5.90;;;;;;;1.66;72.39;100510.11;1838574;75;21088;-69
2021/04/27 03:32:23;;;;;;;7.92;4.62;;;;;;;1.69;72.48;100508.41;1838103;75;21118;-69
2021/04/27 03:34:52;;;;;;;8.55;4.45;;;;;;;1.74;72.72;100508.09;1844027;75;21169;-70
2021/04/27 03:37:21;;;;;;;9.10;6.03;;;;;;;1.78;72.78;100510.66;1809405;77;21376;-69
2021/04/27 03:39:49;;;;;;;8.10;5.10;;;;;;;1.83;72.95;100510.84;1806444;77;22291;-71
2021/04/27 03:42:18;;;;;;;8.35;5.10;;;;;;;1.87;72.97;100509.42;1842299;75;21137;-70
2021/04/27 03:44:47;;;;;;;8.70;5.17;;;;;;;1.91;73.00;100514.30;1807948;77;21096;-72
2021/04/27 03:47:16;;;;;;;8.10;4.60;;;;;;;1.97;73.00;100510.34;1783027;78;21168;-71
2021/04/27 03:49:45;;;;;;;8.00;4.53;;;;;;;2.05;73.04;100508.84;1814192;77;21261;-70
2021/04/27 03:52:13;;;;;;;7.25;4.55;;;;;;;2.15;72.90;100512.91;1812154;78;21614;-70
2021/04/27 03:54:41;;;;;;;7.08;4.62;;;;;;;2.20;72.87;100512.59;1810928;77;21197;-69
2021/04/27 03:57:10;;;;;;;7.78;4.78;;;;;;;2.25;72.77;100517.27;1809135;78;21195;-71
2021/04/27 03:59:40;;;;;;;7.53;5.08;;;;;;;2.29;72.82;100507.94;1793625;78;21628;-70
2021/04/27 04:02:08;;;;;;;7.40;4.05;;;;;;;2.34;72.66;100516.06;1813286;78;22325;-69
2021/04/27 04:04:36;;;;;;;7.58;4.35;;;;;;;2.38;72.59;100518.58;1812427;77;21219;-68
2021/04/27 04:07:14;;;;;;;7.92;4.97;;;;;;;2.38;72.56;100521.22;1807148;78;21148;-70
2021/04/27 04:10:15;;;;;;;7.10;4.77;;;;;;;2.46;72.45;100520.99;1826403;77;22703;-69
2021/04/27 04:12:46;;;;;;;6.40;4.72;;;;;;;2.47;72.49;100525.75;1791326;79;21128;-69
2021/04/27 04:15:17;;;;;;;7.08;4.33;;;;;;;2.48;72.24;100520.30;1798825;78;22104;-70
2021/04/27 04:17:47;;;;;;;6.42;4.20;;;;;;;2.53;72.18;100520.50;1781538;79;21171;-71
2021/04/27 04:20:18;;;;;;;6.87;4.08;;;;;;;2.61;72.18;100525.26;1779579;79;21203;-71
2021/04/27 04:22:51;;;;;;;6.95;4.65;;;;;;;2.67;72.11;100527.88;1784567;79;21615;-69
2021/04/27 04:25:19;;;;;;;8.53;5.03;;;;;;;2.75;71.99;100526.33;1770497;79;21205;-69
2021/04/27 04:27:47;;;;;;;6.65;4.30;;;;;;;2.85;71.79;100527.73;1783352;79;22254;-69
2021/04/27 04:30:21;;;;;;;8.53;4.78;;;;;;;2.89;71.60;100532.37;1791971;79;21159;-70
2021/04/27 04:32:49;;;;;;;6.72;4.70;;;;;;;2.94;71.46;100532.59;1791561;79;21195;-70
2021/04/27 04:35:35;;;;;;;7.58;4.45;;;;;;;3.00;71.35;100533.08;1784903;78;21175;-71
2021/04/27 04:38:23;;;;;;;6.60;4.12;;;;;;;3.08;71.05;100524.63;1790260;79;21670;-69
2021/04/27 04:41:18;;;;;;;7.00;4.50;;;;;;;3.20;70.76;100521.14;1772355;77;27874;-72
2021/04/27 04:44:06;;;;;;;7.87;4.65;;;;;;;3.24;70.44;100532.08;1762114;80;21692;-70
2021/04/27 04:46:54;;;;;;;7.83;4.45;;;;;;;3.27;70.08;100530.34;1764136;80;22326;-70
2021/04/27 04:49:41;;;;;;;7.55;4.45;;;;;;;3.27;69.93;100535.63;1781738;80;21269;-68
2021/04/27 04:52:27;;;;;;;5.97;3.85;;;;;;;3.33;70.01;100536.63;1781267;80;21650;-70
2021/04/27 04:54:56;;;;;;;9.55;4.60;;;;;;;3.44;69.81;100537.28;1781398;78;21191;-70
2021/04/27 04:57:39;;;;;;;7.13;4.70;;;;;;;3.55;69.70;100536.60;1813043;77;22934;-71
2021/04/27 05:00:12;;;;;;;7.62;4.17;;;;;;;3.58;69.68;100536.70;1785064;79;21490;-69
2021/04/27 05:02:42;;;;;;;7.12;4.58;;;;;;;3.65;69.58;100532.19;1788984;79;21268;-72
2021/04/27 05:05:28;;;;;;;7.58;4.92;;;;;;;3.68;69.32;100535.73;1799309;79;21056;-70
2021/04/27 05:08:22;;;;;;;6.67;4.75;;;;;;;3.75;69.09;100528.56;1794047;79;21167;-70
2021/04/27 05:11:04;;;;;;;7.67;4.40;;;;;;;3.84;68.69;100529.94;1792264;79;21155;-71
2021/04/27 05:13:34;;;;;;;8.55;4.80;;;;;;;3.95;68.43;100536.40;1796780;79;21108;-69
2021/04/27 05:16:03;;;;;;;8.85;4.97;;;;;;;4.07;68.32;100532.02;1788255;79;22255;-70
2021/04/27 05:18:33;;;;;;;6.42;4.20;;;;;;;4.16;67.74;100539.19;1795501;79;21186;-70
2021/04/27 05:21:02;;;;;;;6.12;4.30;;;;;;;4.21;67.45;100521.66;1785713;79;21217;-70
2021/04/27 05:23:31;;;;;;;6.22;4.30;;;;;;;4.31;67.43;100531.76;1791010;79;21119;-72
2021/04/27 05:26:00;;;;;;;6.42;4.58;;;;;;;4.48;67.13;100532.02;1790535;79;21640;-68
2021/04/27 05:28:29;;;;;;;7.17;4.12;;;;;;;4.56;66.33;100528.28;1795518;79;22125;-70
2021/04/27 05:33:37;;;;;;;6.87;4.13;;;;;;;4.70;65.97;100528.44;1756761;79;23579;-69
2021/04/27 05:36:07;;;;;;;6.30;3.58;;;;;;;4.70;65.69;100527.11;1698115;82;21626;-69
2021/04/27 05:38:35;;;;;;;7.20;4.50;;;;;;;4.69;65.54;100529.47;1706598;82;21203;-70
2021/04/27 05:41:03;;;;;;;6.15;4.20;;;;;;;4.69;65.69;100533.44;1711371;83;21126;-70
2021/04/27 05:43:32;;;;;;;6.50;4.70;;;;;;;4.77;65.37;100535.82;1723142;81;21199;-70
2021/04/27 05:46:00;;;;;;;5.45;3.58;;;;;;;4.83;65.38;100534.11;1716081;81;21189;-69
2021/04/27 05:48:28;;;;;;;6.92;4.35;;;;;;;4.91;65.26;100535.97;1720377;81;21234;-70
2021/04/27 05:50:56;;;;;;;5.25;3.83;;;;;;;4.92;64.69;100537.58;1716715;81;22418;-70
2021/04/27 05:53:24;;;;;;;5.45;4.12;;;;;;;4.98;64.80;100531.13;1728562;81;21179;-70
2021/04/27 05:55:52;;;;;;;6.30;4.08;;;;;;;5.10;64.77;100535.95;1719882;81;21215;-71
2021/04/27 05:58:20;;;;;;;6.78;4.35;;;;;;;5.21;64.13;100527.80;1724812;81;21186;-69
2021/04/27 06:00:48;;;;;;;8.75;4.45;;;;;;;5.25;63.53;100527.65;1720807;81;21621;-71
2021/04/27 06:03:18;;;;;;;7.85;4.53;;;;;;;5.23;63.50;100535.83;1724817;81;21208;-70
2021/04/27 06:05:46;;;;;;;7.15;4.30;;;;;;;5.23;63.34;100531.86;1724814;81;21674;-69
2021/04/27 06:08:15;;;;;;;6.05;4.25;;;;;;;5.28;63.27;100535.95;1723457;81;21681;-69
2021/04/27 06:10:46;;;;;;;5.78;3.52;;;;;;;5.29;63.08;100529.61;1721374;82;21178;-69
2021/04/27 06:13:16;;;;;;;5.37;3.65;;;;;;;5.34;62.66;100540.89;1734034;81;21147;-70
2021/04/27 06:15:45;;;;;;;6.67;4.00;;;;;;;5.36;62.14;100534.83;1720482;82;22311;-70
2021/04/27 06:18:13;;;;;;;5.92;3.30;;;;;;;5.37;61.99;100542.58;1729694;81;21190;-70
2021/04/27 06:20:41;;;;;;;5.60;3.42;;;;;;;5.35;60.93;100535.87;1715518;81;21538;-70
2021/04/27 06:23:09;;;;;;;7.95;4.42;;;;;;;5.33;61.12;100531.30;1710597;82;21677;-70
2021/04/27 06:25:37;;;;;;;6.30;3.98;;;;;;;5.43;61.31;100530.28;1725099;82;21206;-71
2021/04/27 06:28:07;;;;;;;7.20;4.45;;;;;;;5.56;60.90;100530.60;1728049;81;21210;-70
2021/04/27 06:30:36;;;;;;;4.75;3.17;;;;;;;5.64;61.05;100532.44;1716341;81;21238;-70
2021/04/27 06:33:04;;;;;;;6.78;3.37;;;;;;;5.71;59.40;100528.37;1725002;81;22429;-70
2021/04/27 06:35:32;;;;;;;4.60;3.00;;;;;;;5.70;59.17;100533.38;1728540;82;21232;-70
2021/04/27 06:38:00;;;;;;;6.53;2.87;;;;;;;5.74;58.23;100533.22;1721108;81;21199;-71
2021/04/27 06:40:29;;;;;;;4.90;3.00;;;;;;;5.78;57.45;100530.92;1725637;82;21230;-71
2021/04/27 06:42:58;;;;;;;4.08;2.60;;;;;;;5.87;57.30;100533.55;1718156;82;21547;-70
2021/04/27 06:45:27;;;;;;;4.37;2.50;;;;;;;5.97;56.54;100529.86;1726160;82;21118;-70
2021/04/27 06:47:55;;;;;;;4.10;2.50;;;;;;;6.11;56.32;100529.14;1713820;81;21213;-71
2021/04/27 06:50:23;;;;;;;4.90;2.50;;;;;;;6.20;55.47;100527.77;1756928;79;21186;-73
2021/04/27 06:52:53;;;;;;;5.25;2.90;;;;;;;6.29;54.60;100527.73;1768550;80;21209;-70
2021/04/27 06:55:22;;;;;;;5.97;2.65;;;;;;;6.39;54.43;100531.67;1764499;79;21201;-72
2021/04/27 06:57:51;;;;;;;4.97;2.60;;;;;;;6.54;53.30;100518.73;1766943;79;21736;-72
2021/04/27 07:00:22;;;;;;;4.15;2.80;;;;;;;6.67;52.54;100518.50;1762720;79;21218;-70
2021/04/27 07:02:50;;;;;;;4.10;2.62;;;;;;;6.81;52.50;100513.25;1762313;80;21239;-71
2021/04/27 07:05:19;;;;;;;4.97;3.30;;;;;;;6.91;51.99;100513.99;1769301;80;21211;-72
2021/04/27 07:07:47;;;;;;;3.52;2.30;;;;;;;7.00;51.99;100515.75;1765062;79;21198;-72
2021/04/27 07:10:15;;;;;;;3.33;1.92;;;;;;;7.14;51.14;100514.47;1763942;79;21349;-73
2021/04/27 07:12:43;;;;;;;3.95;2.40;;;;;;;7.18;48.77;100508.96;1760378;79;21218;-73
2021/04/27 07:15:13;;;;;;;3.67;2.08;;;;;;;7.27;48.53;100510.70;1763581;79;21237;-70
2021/04/27 07:17:41;;;;;;;4.28;2.10;;;;;;;7.39;47.51;100515.99;1761658;79;21246;-72
2021/04/27 07:20:12;;;;;;;5.50;3.05;;;;;;;7.49;47.09;100513.00;1766770;79;21214;-72
2021/04/27 07:22:40;;;;;;;5.60;2.55;;;;;;;7.54;46.73;100509.65;1770946;80;21185;-71
2021/04/27 07:25:11;;;;;;;4.03;2.00;;;;;;;7.60;47.95;100507.87;1762035;79;21172;-70
2021/04/27 07:27:39;;;;;;;3.42;1.90;;;;;;;7.75;47.38;100505.50;1765094;79;21218;-68
2021/04/27 07:30:09;;;;;;;3.08;1.98;;;;;;;7.85;46.60;100509.66;1766503;79;21375;-70
2021/04/27 07:32:37;;;;;;;3.50;1.70;;;;;;;7.89;45.12;100504.13;1752468;80;21201;-72
2021/04/27 07:35:08;;;;;;;4.20;2.15;;;;;;;7.92;43.44;100502.86;1761635;79;21174;-71
2021/04/27 07:37:36;;;;;;;3.12;1.92;;;;;;;7.95;44.69;100513.81;1770478;79;21170;-74
2021/04/27 07:40:08;;;;;;;3.37;1.98;;;;;;;7.97;42.40;100507.74;1766320;79;21206;-71
2021/04/27 07:42:39;;;;;;;3.42;1.95;;;;;;;7.81;43.01;100502.41;1757306;79;21352;-76
2021/04/27 07:45:10;;;;;;;2.58;1.50;;;;;;;7.81;44.02;100503.21;1767368;79;21213;-71
2021/04/27 07:47:41;;;;;;;3.30;1.72;;;;;;;7.96;43.52;100498.66;1765791;79;21261;-70
2021/04/27 07:50:11;;;;;;;4.03;2.00;;;;;;;7.98;43.46;100501.90;1764964;79;21617;-74
2021/04/27 07:52:39;;;;;;;3.92;1.85;;;;;;;8.08;42.45;100495.94;1760820;79;21197;-71
2021/04/27 07:55:09;;;;;;;4.33;2.00;;;;;;;8.16;42.08;100500.34;1767740;79;21293;-69
2021/04/27 07:57:37;;;;;;;4.92;2.30;;;;;;;8.24;42.35;100500.45;1755432;79;21237;-72
2021/04/27 08:00:08;;;;;;;4.20;2.05;;;;;;;8.35;40.81;100504.87;1768951;79;21182;-71
2021/04/27 08:02:47;;;;;;;3.40;1.90;;;;;;;8.36;40.61;100492.39;1838386;77;23342;-72
2021/04/27 08:05:15;;;;;;;3.58;2.20;;;;;;;8.31;40.21;100496.30;1805006;78;21639;-69
2021/04/27 08:07:43;;;;;;;4.33;2.15;;;;;;;8.28;40.84;100491.45;1820265;77;22547;-71
2021/04/27 08:10:13;;;;;;;3.80;2.22;;;;;;;8.25;41.31;100495.93;1813301;77;21645;-73
2021/04/27 08:12:47;;;;;;;3.33;2.08;;;;;;;8.29;41.21;100495.22;1814026;77;21209;-72
2021/04/27 08:15:18;;;;;;;3.50;2.08;;;;;;;8.34;41.72;100499.27;1745166;78;21659;-71
2021/04/27 08:17:46;;;;;;;3.40;2.08;;;;;;;8.42;40.90;100494.09;1703593;81;22112;-72
2021/04/27 08:20:14;;;;;;;4.67;2.37;;;;;;;8.56;40.83;100488.72;1751004;80;22850;-72
2021/04/27 08:22:44;;;;;;;4.72;2.10;;;;;;;8.71;40.31;100502.75;1729283;81;21363;-71
2021/04/27 08:25:15;;;;;;;4.33;2.00;;;;;;;8.76;39.99;100492.72;1757302;80;21205;-72
2021/04/27 08:27:45;;;;;;;3.75;1.92;;;;;;;8.74;40.07;100489.48;1749313;80;21172;-72
2021/04/27 08:30:15;;;;;;;3.50;1.92;;;;;;;8.78;38.95;100490.59;1759745;80;21196;-74
2021/04/27 08:32:43;;;;;;;4.17;2.10;;;;;;;8.83;39.01;100499.47;1770101;80;21285;-71
2021/04/27 08:35:11;;;;;;;3.67;1.85;;;;;;;8.88;39.44;100492.05;1785616;80;21660;-72
2021/04/27 08:37:40;;;;;;;3.27;1.90;;;;;;;9.00;38.22;100486.09;1722669;81;21227;-70
2021/04/27 08:40:11;;;;;;;4.70;1.87;;;;;;;9.06;37.56;100482.44;1721177;81;21198;-72
2021/04/27 08:42:38;;;;;;;2.42;1.75;;;;;;;9.09;37.95;100481.94;1719145;81;21188;-70
2021/04/27 08:45:09;;;;;;;3.58;1.82;;;;;;;9.21;37.19;100487.13;1743980;81;21889;-70
2021/04/27 08:47:37;;;;;;;3.95;1.92;;;;;;;9.35;37.51;100481.70;1738092;81;22329;-68
2021/04/27 08:50:09;;;;;;;4.35;2.40;;;;;;;9.46;37.14;100470.61;1741422;81;21613;-69
2021/04/27 08:52:37;;;;;;;3.80;2.02;;;;;;;9.58;37.38;100483.27;1722235;81;21200;-69
2021/04/27 08:55:07;;;;;;;5.17;2.02;;;;;;;9.72;37.38;100483.66;1755066;81;21180;-70
2021/04/27 08:57:35;;;;;;;3.17;1.67;;;;;;;9.83;37.51;100469.88;1736250;81;22285;-68
2021/04/27 09:00:10;;;;;;;3.02;1.72;;;;;;;10.01;36.64;100467.37;1717885;81;21213;-70
2021/04/27 09:02:38;;;;;;;6.58;2.17;;;;;;;10.14;36.50;100470.94;1721974;81;21183;-69
2021/04/27 09:05:23;;;;;;;2.92;1.70;;;;;;;10.28;36.72;100470.80;1719420;83;21299;-70
2021/04/27 09:08:05;;;;;;;5.10;2.10;;;;;;;10.47;35.79;100471.19;1809409;79;22430;-69
2021/04/27 09:10:45;;;;;;;3.22;1.80;;;;;;;10.49;35.95;100460.23;1778514;79;21214;-70
2021/04/27 09:13:18;;;;;;;2.55;1.60;;;;;;;10.56;35.12;100452.79;1771880;80;21447;-68
2021/04/27 09:15:51;;;;;;;4.45;2.08;;;;;;;10.58;35.35;100453.88;1770060;79;21631;-69
2021/04/27 09:18:31;;;;;;;4.03;2.30;;;;;;;10.60;34.79;100457.91;1778839;80;21208;-70
2021/04/27 09:21:06;;;;;;;3.50;2.08;;;;;;;10.38;35.52;100464.72;1806667;78;21173;-71
2021/04/27 09:23:37;;;;;;;4.70;2.15;;;;;;;10.32;35.46;100459.06;1766870;79;21170;-69
2021/04/27 09:26:19;;;;;;;4.28;1.98;;;;;;;10.33;35.94;100460.67;1772500;79;21467;-69
2021/04/27 09:28:53;;;;;;;5.30;2.37;;;;;;;10.34;36.20;100464.97;1778134;80;21190;-69
2021/04/27 09:31:38;;;;;;;4.37;2.02;;;;;;;10.50;35.92;100459.19;1790856;79;21229;-67
2021/04/27 09:34:30;;;;;;;3.10;1.35;;;;;;;10.63;35.19;100457.90;1762119;80;22100;-68
2021/04/27 09:37:02;;;;;;;5.20;1.80;;;;;;;10.68;32.74;100449.92;1757344;80;21219;-68
2021/04/27 09:39:40;;;;;;;3.40;1.82;;;;;;;10.62;33.36;100458.97;1780987;80;21402;-68
2021/04/27 09:42:22;;;;;;;3.27;1.80;;;;;;;10.69;32.98;100452.86;1794885;78;21196;-68
2021/04/27 09:44:54;;;;;;;4.92;1.75;;;;;;;10.73;33.10;100479.34;1801772;79;21157;-67
2021/04/27 09:47:33;;;;;;;3.08;1.77;;;;;;;10.75;33.13;100462.52;1798932;79;21615;-68
2021/04/27 09:50:08;;;;;;;3.45;1.80;;;;;;;10.79;32.81;100456.41;1808851;79;21180;-69
2021/04/27 09:52:46;;;;;;;4.23;1.97;;;;;;;10.74;33.45;100459.04;1790170;79;21380;-69
2021/04/27 09:55:20;;;;;;;4.23;2.10;;;;;;;10.72;33.55;100455.81;1756866;79;21295;-68
2021/04/27 09:57:54;;;;;;;3.33;1.57;;;;;;;10.67;33.16;100453.13;1779303;80;21383;-68
2021/04/27 10:00:39;;;;;;;3.50;1.87;;;;;;;10.66;33.59;100459.55;1776660;80;21358;-67
2021/04/27 10:03:11;;;;;;;4.08;1.85;;;;;;;10.72;33.20;100455.02;1770370;79;21175;-68
2021/04/27 10:05:42;;;;;;;4.15;1.90;;;;;;;10.77;33.74;100464.41;1774340;80;22064;-68
2021/04/27 10:08:12;;;;;;;3.60;1.95;;;;;;;10.83;31.81;100452.67;1809724;79;21196;-68
2021/04/27 10:10:41;;;;;;;3.50;1.92;;;;;;;10.77;32.33;100457.72;1770513;79;21104;-69
2021/04/27 10:13:10;;;;;;;2.20;1.50;;;;;;;10.70;32.36;100453.95;1775186;79;21615;-70
2021/04/27 10:15:38;;;;;;;3.45;1.72;;;;;;;10.63;33.12;100454.72;1769229;79;21494;-69
2021/04/27 10:18:09;;;;;;;5.37;2.13;;;;;;;10.63;32.76;100449.89;1784018;78;21699;-68
2021/04/27 10:20:38;;;;;;;4.07;1.90;;;;;;;10.63;33.10;100451.22;1781487;80;21956;-68
2021/04/27 10:23:09;;;;;;;6.00;2.03;;;;;;;10.66;33.31;100448.86;1772676;78;21860;-69
2021/04/27 10:25:38;;;;;;;4.05;2.00;;;;;;;10.71;33.15;100450.20;1785651;79;21526;-69
2021/04/27 10:28:08;;;;;;;3.33;1.70;;;;;;;10.76;32.97;100458.80;1789138;79;21747;-68
2021/04/27 10:30:42;;;;;;;2.67;1.70;;;;;;;10.77;33.27;100464.41;1781146;80;21496;-68
2021/04/27 10:33:16;;;;;;;3.42;1.62;;;;;;;10.76;32.70;100460.13;1798008;79;21489;-70
2021/04/27 10:36:04;;;;;;;3.33;1.70;;;;;;;10.67;32.14;100453.67;1773761;79;21596;-68
2021/04/27 10:38:49;;;;;;;3.73;1.57;;;;;;;10.67;33.22;100460.34;1782001;78;21413;-70
2021/04/27 10:41:21;;;;;;;3.07;1.60;;;;;;;10.73;33.31;100456.11;1778482;79;21483;-69
2021/04/27 10:43:54;;;;;;;;;;;;;;;10.79;33.32;100455.06;1775371;80;22667;-69
2021/04/27 10:46:39;;;;;;;2.27;1.40;;;;;;;10.82;32.08;100449.71;1746032;79;23401;-69
2021/04/27 10:49:17;;;;;;;4.70;1.97;;;;;;;10.65;32.25;100441.89;1706929;83;21544;-68
2021/04/27 10:51:47;;;;;;;3.17;1.67;;;;;;;10.56;33.08;100446.95;1719443;81;22126;-69
2021/04/27 10:54:23;;;;;;;3.20;1.60;;;;;;;10.53;32.97;100450.66;1717947;82;22082;-68
2021/04/27 10:57:09;;;;;;;2.92;1.40;;;;;;;10.52;32.02;100445.83;1723097;82;22013;-68
2021/04/27 10:59:53;;;;;;;3.05;1.40;;;;;;;10.53;31.71;100447.46;1745634;81;21114;-69
2021/04/27 11:02:29;;;;;;;2.77;1.60;;;;;;;10.39;31.33;100436.95;1744183;81;21115;-68
2021/04/27 11:05:14;;;;;;;3.05;1.50;;;;;;;10.38;31.83;100443.36;1742274;82;22761;-69
2021/04/27 11:07:44;;;;;;;3.42;1.47;;;;;;;10.42;31.76;100436.43;1681935;82;21231;-67
2021/04/27 11:10:19;;;;;;;2.47;1.40;;;;;;;10.46;32.33;100429.53;1734753;81;21163;-69
2021/04/27 11:12:58;;;;;;;3.80;1.50;;;;;;;10.38;31.54;100434.55;1725108;82;23046;-70
2021/04/27 11:15:30;;;;;;;2.23;1.50;;;;;;;10.27;31.64;100428.35;1729133;81;21716;-71
2021/04/27 11:18:19;;;;;;;1.80;1.30;;;;;;;10.24;32.20;100422.16;1715845;82;21639;-70
2021/04/27 11:21:11;;;;;;;3.47;1.57;;;;;;;10.22;32.69;100429.61;1734974;81;21595;-70
2021/04/27 11:23:52;;;;;;;;;;;;;;;10.14;31.70;100424.77;1716443;82;21207;-70
2021/04/27 11:26:38;;;;;;;3.20;1.62;;;;;;;10.02;31.35;100423.61;1730067;81;20289;-70
2021/04/27 11:29:16;;;;;;;2.47;1.40;;;;;;;9.88;31.93;100419.25;1730335;81;21032;-73
2021/04/27 11:32:10;;;;;;;2.40;1.20;;;;;;;9.83;31.86;100425.86;1732540;81;22319;-70
2021/04/27 11:35:00;;;;;;;2.25;1.25;;;;;;;9.81;32.45;100424.00;1737362;82;21290;-69
2021/04/27 11:37:52;;;;;;;4.22;2.27;;;;;;;9.83;33.34;100417.86;1723983;81;21211;-69
2021/04/27 11:40:30;;;;;;;3.58;1.82;;;;;;;9.96;33.94;100417.95;1738108;82;21661;-71
2021/04/27 11:43:04;;;;;;;3.50;1.80;;;;;;;10.20;33.11;100427.72;1729210;81;21664;-70
2021/04/27 11:45:45;;;;;;;4.17;2.07;;;;;;;10.24;33.06;100426.16;1729911;81;21210;-70
2021/04/27 11:48:23;;;;;;;4.53;1.60;;;;;;;10.10;33.09;100418.61;1777571;79;23334;-70
2021/04/27 11:50:51;;;;;;;3.50;1.37;;;;;;;9.95;33.80;100417.16;1735190;81;21172;-68
2021/04/27 11:53:21;;;;;;;2.75;1.50;;;;;;;9.99;34.23;100412.11;1744897;80;22637;-67
2021/04/27 11:55:54;;;;;;;3.50;1.75;;;;;;;10.09;33.78;100416.98;1745211;82;21677;-71
2021/04/27 11:58:33;;;;;;;8.70;5.45;;;;;;;10.17;33.37;100406.87;1725542;81;21167;-70